createdAt,value
2018-02-06T00:01:38.904Z,59.46
2018-02-06T00:04:06.539Z,59.41
2018-02-06T00:06:34.083Z,59.47
2018-02-06T00:09:01.569Z,59.74
2018-02-06T00:11:29.073Z,59.96
2018-02-06T00:13:56.563Z,60.54
2018-02-06T00:16:24.090Z,60.53
2018-02-06T00:18:51.628Z,60.32
2018-02-06T00:21:19.151Z,59.97
2018-02-06T00:23:46.640Z,59.75
2018-02-06T00:26:14.149Z,59.60
2018-02-06T00:28:41.646Z,59.63
2018-02-06T00:31:09.331Z,59.80
2018-02-06T00:33:36.828Z,59.92
2018-02-06T00:36:04.397Z,59.88
2018-02-06T00:38:32.017Z,59.52
2018-02-06T00:40:59.671Z,59.30
2018-02-06T00:43:27.337Z,59.27
2018-02-06T00:45:54.922Z,59.40
2018-02-06T00:48:22.438Z,59.42
2018-02-06T00:50:50.572Z,59.52
2018-02-06T00:53:18.163Z,59.63
2018-02-06T00:55:45.672Z,59.67
2018-02-06T00:58:13.151Z,59.67
2018-02-06T01:00:40.675Z,59.95
2018-02-06T01:03:08.166Z,59.99
2018-02-06T01:05:35.678Z,59.92
2018-02-06T01:08:03.188Z,59.79
2018-02-06T01:10:30.693Z,59.54
2018-02-06T01:12:58.234Z,59.44
2018-02-06T01:15:25.731Z,59.37
2018-02-06T01:17:53.427Z,59.48
2018-02-06T01:20:20.942Z,59.64
2018-02-06T01:22:48.511Z,59.63
2018-02-06T01:25:16.020Z,59.56
2018-02-06T01:27:43.500Z,59.55
2018-02-06T01:30:11.006Z,59.30
2018-02-06T01:32:38.495Z,58.95
2018-02-06T01:35:06.007Z,58.91
2018-02-06T01:37:33.490Z,58.69
2018-02-06T01:40:00.983Z,58.56
2018-02-06T01:42:28.464Z,58.94
2018-02-06T01:44:56.145Z,59.07
2018-02-06T01:47:23.666Z,59.05
2018-02-06T01:50:02.979Z,59.15
2018-02-06T01:52:30.549Z,59.50
2018-02-06T01:54:58.037Z,59.91
2018-02-06T01:57:25.551Z,60.27
2018-02-06T01:59:53.042Z,60.32
2018-02-06T02:02:20.545Z,60.30
2018-02-06T02:04:48.037Z,60.28
2018-02-06T02:07:15.555Z,60.10
2018-02-06T02:09:43.075Z,59.96
2018-02-06T02:12:10.585Z,60.07
2018-02-06T02:14:38.091Z,59.98
2018-02-06T02:17:05.572Z,60.02
2018-02-06T02:19:34.669Z,59.90
2018-02-06T02:22:02.117Z,59.47
2018-02-06T02:24:29.655Z,59.33
2018-02-06T02:26:57.180Z,59.34
2018-02-06T02:29:24.681Z,59.33
2018-02-06T02:31:52.180Z,59.13
2018-02-06T02:34:19.659Z,59.32
2018-02-06T02:36:47.313Z,59.54
2018-02-06T02:39:14.853Z,59.89
2018-02-06T02:41:42.435Z,60.11
2018-02-06T04:39:45.924Z,61.92
2018-02-06T04:42:13.413Z,61.98
2018-02-06T04:44:41.003Z,62.38
2018-02-06T04:47:09.069Z,62.53
2018-02-06T04:49:36.678Z,62.44
2018-02-06T04:52:04.778Z,62.26
2018-02-06T04:54:32.302Z,62.01
2018-02-06T04:57:00.275Z,61.75
2018-02-06T04:59:28.458Z,61.59
2018-02-06T05:01:55.934Z,61.44
2018-02-06T05:04:23.555Z,61.24
2018-02-06T05:06:51.142Z,60.99
2018-02-06T05:09:18.757Z,60.79
2018-02-06T05:11:46.301Z,60.69
2018-02-06T05:14:13.863Z,60.78
2018-02-06T05:16:41.401Z,60.81
2018-02-06T05:19:08.990Z,61.01
2018-02-06T05:21:36.557Z,61.20
2018-02-06T05:24:04.032Z,61.22
2018-02-06T05:26:31.550Z,61.06
2018-02-06T05:28:59.050Z,60.70
2018-02-06T05:31:26.621Z,60.64
2018-02-06T05:33:54.134Z,60.89
2018-02-06T05:36:21.610Z,61.12
2018-02-06T05:38:49.124Z,60.75
2018-02-06T05:41:16.628Z,60.46
2018-02-06T05:43:44.142Z,60.74
2018-02-06T05:46:11.684Z,60.95
2018-02-06T05:48:39.232Z,61.11
2018-02-06T05:51:06.729Z,61.32
2018-02-06T05:53:34.214Z,61.42
2018-02-06T05:56:01.916Z,61.07
2018-02-06T05:58:29.412Z,60.66
2018-02-06T06:00:57.029Z,60.84
2018-02-06T06:03:24.639Z,61.05
2018-02-06T06:05:52.243Z,60.92
2018-02-06T06:08:21.958Z,60.86
2018-02-06T06:10:49.515Z,60.91
2018-02-06T06:13:17.091Z,60.96
2018-02-06T06:15:44.573Z,61.29
2018-02-06T06:18:12.069Z,61.60
2018-02-06T06:20:39.546Z,61.65
2018-02-06T06:23:07.108Z,61.70
2018-02-06T06:25:34.653Z,61.75
2018-02-06T06:28:02.233Z,61.60
2018-02-06T06:30:29.735Z,61.67
2018-02-06T06:32:57.220Z,61.46
2018-02-06T06:35:24.729Z,61.43
2018-02-06T06:37:52.238Z,61.55
2018-02-06T06:40:19.743Z,61.79
2018-02-06T06:42:47.254Z,62.09
2018-02-06T06:45:14.798Z,62.16
2018-02-06T06:47:42.352Z,62.54
2018-02-06T06:50:09.891Z,62.54
2018-02-06T06:52:37.418Z,62.37
2018-02-06T06:55:05.116Z,62.48
2018-02-06T06:57:32.660Z,62.42
2018-02-06T07:00:00.198Z,62.64
2018-02-06T07:02:27.796Z,62.66
2018-02-06T07:04:55.299Z,62.50
2018-02-06T07:07:22.816Z,62.37
2018-02-06T07:09:50.368Z,62.21
2018-02-06T07:12:17.922Z,62.00
2018-02-06T07:14:45.398Z,61.59
2018-02-06T07:17:12.916Z,61.58
2018-02-06T07:19:40.420Z,61.21
2018-02-06T07:22:07.930Z,61.28
2018-02-06T07:24:35.431Z,61.08
2018-02-06T07:27:02.957Z,61.11
2018-02-06T07:29:30.522Z,60.85
2018-02-06T07:31:58.079Z,60.43
2018-02-06T07:34:25.688Z,60.60
2018-02-06T07:36:53.209Z,60.60
2018-02-06T07:39:20.732Z,60.44
2018-02-06T07:41:48.257Z,60.83
2018-02-06T07:44:15.740Z,60.94
2018-02-06T07:46:43.220Z,60.80
2018-02-06T07:49:10.734Z,60.70
2018-02-06T07:51:38.264Z,61.12
2018-02-06T07:54:05.742Z,61.31
2018-02-06T07:56:33.248Z,61.00
2018-02-06T07:59:00.758Z,61.03
2018-02-06T08:01:28.278Z,60.92
2018-02-06T08:03:55.765Z,60.66
2018-02-06T08:06:23.279Z,60.58
2018-02-06T08:08:50.776Z,60.42
2018-02-06T08:11:18.314Z,60.15
2018-02-06T08:13:46.025Z,59.81
2018-02-06T08:16:13.599Z,59.73
2018-02-06T08:18:41.192Z,59.52
2018-02-06T08:21:08.691Z,59.51
2018-02-06T08:23:36.428Z,59.02
2018-02-06T08:26:03.943Z,59.07
2018-02-06T08:28:31.515Z,58.59
2018-02-06T08:30:59.015Z,57.55
2018-02-06T08:33:26.534Z,55.72
2018-02-06T08:35:55.392Z,53.45
2018-02-06T08:38:24.030Z,51.53
2018-02-06T08:40:51.654Z,51.67
2018-02-06T08:43:19.282Z,51.46
2018-02-06T08:45:46.793Z,51.33
2018-02-06T08:48:14.760Z,50.68
2018-02-06T08:50:42.279Z,50.81
2018-02-06T08:53:09.811Z,50.40
2018-02-06T08:55:37.288Z,50.62
2018-02-06T08:58:04.825Z,50.95
2018-02-06T09:00:32.319Z,51.17
2018-02-06T09:02:59.844Z,50.81
2018-02-06T09:05:27.340Z,51.07
2018-02-06T09:07:54.882Z,51.45
2018-02-06T09:10:22.375Z,50.83
2018-02-06T09:12:49.875Z,51.47
2018-02-06T09:15:17.397Z,50.94
2018-02-06T09:17:44.899Z,50.80
2018-02-06T09:20:12.421Z,50.64
2018-02-06T09:22:39.918Z,50.52
2018-02-06T09:25:07.426Z,50.88
2018-02-06T09:27:34.926Z,51.10
2018-02-06T09:30:02.470Z,51.01
2018-02-06T09:32:29.965Z,50.82
2018-02-06T09:34:57.499Z,50.76
2018-02-06T09:37:25.025Z,49.96
2018-02-06T09:39:52.564Z,50.32
2018-02-06T09:42:20.069Z,49.52
2018-02-06T09:44:47.626Z,49.00
2018-02-06T09:47:15.248Z,48.48
2018-02-06T09:49:42.757Z,48.09
2018-02-06T09:52:10.266Z,47.44
2018-02-06T09:54:38.259Z,47.52
2018-02-06T09:57:05.765Z,47.26
2018-02-06T09:59:33.304Z,48.25
2018-02-06T10:02:00.823Z,47.05
2018-02-06T10:04:28.364Z,46.43
2018-02-06T10:06:55.860Z,47.68
2018-02-06T10:09:23.610Z,46.91
2018-02-06T10:11:51.121Z,47.51
2018-02-06T10:14:18.644Z,45.80
2018-02-06T10:16:46.225Z,46.57
2018-02-06T10:19:13.730Z,47.76
2018-02-06T10:21:41.235Z,46.83
2018-02-06T10:24:09.268Z,47.13
2018-02-06T10:26:36.878Z,47.92
2018-02-06T10:29:04.511Z,47.17
2018-02-06T10:31:32.040Z,46.84
2018-02-06T10:33:59.565Z,46.18
2018-02-06T10:36:27.162Z,45.79
2018-02-06T10:38:54.779Z,45.92
2018-02-06T10:41:22.324Z,44.94
2018-02-06T10:43:49.945Z,45.59
2018-02-06T10:46:17.415Z,45.70
2018-02-06T10:48:44.933Z,44.58
2018-02-06T10:51:12.412Z,44.76
2018-02-06T10:53:39.894Z,45.56
2018-02-06T10:56:07.420Z,45.92
2018-02-06T10:58:34.914Z,45.93
2018-02-06T11:01:02.417Z,45.86
2018-02-06T11:03:29.919Z,45.81
2018-02-06T11:05:57.447Z,45.50
2018-02-06T11:08:24.993Z,45.57
2018-02-06T11:10:52.465Z,46.04
2018-02-06T11:13:19.986Z,46.59
2018-02-06T11:15:47.500Z,45.01
2018-02-06T11:18:15.025Z,44.63
2018-02-06T11:20:42.546Z,43.99
2018-02-06T11:23:10.039Z,42.18
2018-02-06T11:25:37.548Z,40.73
2018-02-06T11:28:05.073Z,39.62
2018-02-06T11:30:32.563Z,38.21
2018-02-06T11:33:00.065Z,37.88
2018-02-06T11:35:27.575Z,37.44
2018-02-06T11:37:55.069Z,36.95
2018-02-06T11:40:22.651Z,37.16
2018-02-06T11:42:50.146Z,37.45
2018-02-06T11:45:17.721Z,38.08
2018-02-06T11:47:45.311Z,38.86
2018-02-06T11:50:12.863Z,39.47
2018-02-06T11:52:40.469Z,39.73
2018-02-06T11:55:08.089Z,38.78
2018-02-06T11:57:35.611Z,39.84
2018-02-06T12:00:03.123Z,39.67
2018-02-06T12:02:30.646Z,39.75
2018-02-06T12:04:58.122Z,40.17
2018-02-06T12:07:25.642Z,38.37
2018-02-06T12:09:53.118Z,37.09
2018-02-06T12:12:20.651Z,36.38
2018-02-06T12:14:48.162Z,36.29
2018-02-06T12:17:15.664Z,35.75
2018-02-06T12:19:43.192Z,34.73
2018-02-06T12:22:10.671Z,33.70
2018-02-06T12:24:38.171Z,33.63
2018-02-06T12:27:05.655Z,32.91
2018-02-06T14:42:42.869Z,39.93
2018-02-06T14:45:10.354Z,40.46
2018-02-06T14:47:37.854Z,40.62
2018-02-06T14:50:05.357Z,41.08
2018-02-06T14:52:32.861Z,40.98
2018-02-06T14:55:00.526Z,40.96
2018-02-06T14:57:28.047Z,40.72
2018-02-06T14:59:55.649Z,41.29
2018-02-06T15:02:23.279Z,41.66
2018-02-06T15:04:50.855Z,42.05
2018-02-06T15:07:18.464Z,42.81
2018-02-06T15:09:45.990Z,42.81
2018-02-06T15:12:13.504Z,42.61
2018-02-06T15:14:40.991Z,43.12
2018-02-06T15:17:08.558Z,43.03
2018-02-06T15:19:36.030Z,43.05
2018-02-06T15:22:03.570Z,42.99
2018-02-06T15:24:31.059Z,43.09
2018-02-06T15:26:58.574Z,43.44
2018-02-06T15:29:26.069Z,43.29
2018-02-06T15:31:53.574Z,43.42
2018-02-06T15:34:21.106Z,44.45
2018-02-06T15:36:48.594Z,44.68
2018-02-06T15:39:16.142Z,44.28
2018-02-06T15:41:43.638Z,44.64
2018-02-06T15:44:11.182Z,44.94
2018-02-06T15:46:39.529Z,45.34
2018-02-06T15:49:07.010Z,45.88
2018-02-06T15:51:34.524Z,46.72
2018-02-06T15:54:02.098Z,47.43
2018-02-06T15:56:29.658Z,47.80
2018-02-06T15:58:57.199Z,48.46
2018-02-06T16:01:24.719Z,48.58
2018-02-06T16:03:52.239Z,49.09
2018-02-06T16:06:19.746Z,48.81
2018-02-06T16:08:47.332Z,48.35
2018-02-06T16:11:15.647Z,48.18
2018-02-06T16:13:44.034Z,48.73
2018-02-06T16:16:11.579Z,49.26
2018-02-06T16:18:39.232Z,49.39
2018-02-06T16:21:06.741Z,50.10
2018-02-06T16:23:34.231Z,50.11
2018-02-06T16:26:02.527Z,51.19
2018-02-06T16:28:30.060Z,51.81
2018-02-06T16:30:57.557Z,52.26
2018-02-06T16:33:25.071Z,53.37
2018-02-06T16:35:52.573Z,53.49
2018-02-06T16:38:20.216Z,53.44
2018-02-06T16:40:47.692Z,52.66
2018-02-06T16:43:15.224Z,52.52
2018-02-06T16:45:42.708Z,52.18
2018-02-06T16:48:10.217Z,51.74
2018-02-06T16:50:37.994Z,51.09
2018-02-06T16:53:05.540Z,51.06
2018-02-06T16:55:33.075Z,50.85
2018-02-06T16:58:01.259Z,50.93
2018-02-06T17:00:28.831Z,51.27
2018-02-06T17:02:56.380Z,51.21
2018-02-06T17:05:23.886Z,51.46
2018-02-06T17:07:51.480Z,51.38
2018-02-06T17:10:19.071Z,51.00
2018-02-06T17:12:46.612Z,50.85
2018-02-06T17:15:14.174Z,51.46
2018-02-06T17:17:41.736Z,52.51
2018-02-06T17:20:13.267Z,53.20
2018-02-06T17:22:40.829Z,53.31
2018-02-06T17:25:10.084Z,53.19
2018-02-06T17:27:39.545Z,53.25
2018-02-06T17:30:09.241Z,53.44
2018-02-06T17:32:38.672Z,53.42
2018-02-06T17:35:08.045Z,53.43
2018-02-06T17:37:37.362Z,53.25
2018-02-06T17:40:07.234Z,53.28
2018-02-06T17:42:36.482Z,53.34
2018-02-06T17:45:05.596Z,53.13
2018-02-06T17:47:35.220Z,53.21
2018-02-06T17:50:08.282Z,53.30
2018-02-06T17:52:38.052Z,53.58
2018-02-06T17:55:07.125Z,53.77
2018-02-06T17:57:36.065Z,53.74
2018-02-06T18:00:06.351Z,54.17
2018-02-06T18:02:36.342Z,54.38
2018-02-06T18:05:05.465Z,54.61
2018-02-06T18:07:35.645Z,54.81
2018-02-06T18:10:05.703Z,54.64
2018-02-06T18:12:34.920Z,54.87
2018-02-06T18:15:04.392Z,55.13
2018-02-06T18:17:33.865Z,55.81
2018-02-06T18:20:05.498Z,56.19
2018-02-06T18:22:34.741Z,56.41
2018-02-06T18:25:03.533Z,56.22
2018-02-06T18:27:31.088Z,56.01
2018-02-06T18:29:58.591Z,55.74
2018-02-06T18:32:26.131Z,55.66
2018-02-06T18:34:53.635Z,55.22
2018-02-06T18:37:21.185Z,55.02
2018-02-06T18:39:48.717Z,54.94
2018-02-06T18:42:16.269Z,55.22
2018-02-06T18:44:43.787Z,55.16
2018-02-06T18:47:11.282Z,55.19
2018-02-06T18:49:38.801Z,54.86
2018-02-06T18:52:06.314Z,55.07
2018-02-06T18:54:33.863Z,54.94
2018-02-06T18:57:01.434Z,54.95
2018-02-06T18:59:29.079Z,55.36
2018-02-06T19:01:56.590Z,55.28
2018-02-06T19:04:24.084Z,54.95
2018-02-06T19:06:52.004Z,54.81
2018-02-06T19:09:20.239Z,54.79
2018-02-06T19:11:49.342Z,54.71
2018-02-06T19:14:18.319Z,54.55
2018-02-06T19:16:46.879Z,54.79
2018-02-06T19:19:14.985Z,55.00
2018-02-06T19:21:43.608Z,55.40
2018-02-06T19:24:13.118Z,55.67
2018-02-06T19:26:41.176Z,55.60
2018-02-06T19:29:10.528Z,55.89
2018-02-06T19:31:40.316Z,55.86
2018-02-06T19:34:09.065Z,55.83
2018-02-06T19:36:37.899Z,55.72
2018-02-06T19:39:07.915Z,55.74
2018-02-06T19:41:36.897Z,55.63
2018-02-06T19:44:06.185Z,55.71
2018-02-06T19:46:35.377Z,55.45
2018-02-06T19:49:03.065Z,55.35
2018-02-06T19:51:31.002Z,55.29
2018-02-06T19:53:58.505Z,55.36
2018-02-06T19:56:26.012Z,55.45
2018-02-06T19:58:53.553Z,55.34
2018-02-06T20:01:21.897Z,55.28
2018-02-06T20:03:49.480Z,55.34
2018-02-06T20:06:17.123Z,55.52
2018-02-06T20:08:44.710Z,55.49
2018-02-06T20:11:12.309Z,55.41
2018-02-06T20:13:39.922Z,55.28
2018-02-06T20:16:07.510Z,55.65
2018-02-06T20:18:35.074Z,55.65
2018-02-06T20:21:02.610Z,55.77
2018-02-06T20:23:30.140Z,55.89
2018-02-06T20:25:57.677Z,55.97
2018-02-06T20:28:25.187Z,55.91
2018-02-06T20:30:52.819Z,56.12
2018-02-06T20:33:20.464Z,56.17
2018-02-06T20:35:48.009Z,56.05
2018-02-06T20:38:15.520Z,56.03
2018-02-06T20:40:43.060Z,56.14
2018-02-06T20:43:10.582Z,56.12
2018-02-06T20:45:38.079Z,56.07
2018-02-06T20:48:05.623Z,56.21
2018-02-06T20:50:33.274Z,56.29
2018-02-06T20:53:00.773Z,56.44
2018-02-06T20:55:28.309Z,56.50
2018-02-06T20:57:55.804Z,56.69
2018-02-06T21:00:23.333Z,56.71
2018-02-06T21:02:50.855Z,56.80
2018-02-06T21:05:18.590Z,57.01
2018-02-06T21:07:46.117Z,56.97
2018-02-06T21:10:13.645Z,57.17
2018-02-06T21:12:41.198Z,57.37
2018-02-06T21:15:08.697Z,57.35
2018-02-06T21:17:36.241Z,57.29
2018-02-06T21:20:03.738Z,57.17
2018-02-06T21:22:31.308Z,57.09
2018-02-06T21:24:58.849Z,57.08
2018-02-06T21:27:26.406Z,56.88
2018-02-06T21:29:53.903Z,56.83
2018-02-06T21:32:21.413Z,57.06
2018-02-06T21:34:48.921Z,57.13
2018-02-06T21:37:16.427Z,56.92
2018-02-06T21:39:43.956Z,56.91
2018-02-06T21:42:11.440Z,56.82
2018-02-06T21:44:39.474Z,56.89
2018-02-06T21:47:06.986Z,56.85
2018-02-06T21:49:34.480Z,56.80
2018-02-06T21:52:02.028Z,56.83
2018-02-06T21:54:29.522Z,56.90
2018-02-06T21:56:57.064Z,56.94
2018-02-06T21:59:24.566Z,57.21
2018-02-06T22:01:52.156Z,57.44
2018-02-06T22:04:19.647Z,57.45
2018-02-06T22:06:47.255Z,57.82
2018-02-06T22:09:14.756Z,57.81
2018-02-06T22:11:42.243Z,57.67
2018-02-06T22:14:09.757Z,57.60
2018-02-06T22:16:37.248Z,57.92
2018-02-06T22:19:04.830Z,58.15
2018-02-06T22:21:32.323Z,58.10
2018-02-06T22:23:59.867Z,58.00
2018-02-06T22:26:27.361Z,58.01
2018-02-06T22:28:54.873Z,58.15
2018-02-06T22:31:22.415Z,58.49
2018-02-06T22:33:49.900Z,58.75
2018-02-06T22:36:17.397Z,58.73
2018-02-06T22:38:45.100Z,58.50
2018-02-06T22:41:12.604Z,58.42
2018-02-06T22:43:40.139Z,58.38
2018-02-06T22:46:07.640Z,58.47
2018-02-06T22:48:35.246Z,58.65
2018-02-06T22:51:02.745Z,58.63
2018-02-06T22:53:30.394Z,58.71
2018-02-06T22:55:57.919Z,58.53
2018-02-06T22:58:25.556Z,58.44
2018-02-06T23:00:53.125Z,58.40
2018-02-06T23:03:20.676Z,58.46
2018-02-06T23:05:48.351Z,58.44
2018-02-06T23:08:15.853Z,58.43
2018-02-06T23:10:43.393Z,58.39
2018-02-06T23:13:10.878Z,58.52
2018-02-06T23:15:39.107Z,58.63
2018-02-06T23:18:06.612Z,58.52
2018-02-06T23:20:34.098Z,58.57
2018-02-06T23:23:01.648Z,58.81
2018-02-06T23:25:29.150Z,58.93
2018-02-06T23:27:56.654Z,58.92
2018-02-06T23:30:24.181Z,59.06
2018-02-06T23:32:51.759Z,59.17
2018-02-06T23:35:19.443Z,59.06
2018-02-06T23:37:47.788Z,59.01
2018-02-06T23:40:15.354Z,58.92
2018-02-06T23:42:42.855Z,58.91
2018-02-06T23:45:10.386Z,58.78
2018-02-06T23:47:38.402Z,58.71
2018-02-06T23:50:06.000Z,58.79
2018-02-06T23:52:33.512Z,58.77
2018-02-06T23:55:01.081Z,58.81
2018-02-06T23:57:28.662Z,58.76
2018-02-06T23:59:56.354Z,58.96
